sensor_id;sensor_type;location;lat;lon;timestamp;P1;durP1;ratioP1;P2;durP2;ratioP2
77350;SDS011;66420;50.246;14.320;2024-02-21T00:00:26;10.77;;;2.20;;
77350;SDS011;66420;50.246;14.320;2024-02-21T00:03:10;8.73;;;2.42;;
77350;SDS011;66420;50.246;14.320;2024-02-21T00:05:54;10.98;;;2.95;;
77350;SDS011;66420;50.246;14.320;2024-02-21T00:08:39;6.20;;;2.50;;
77350;SDS011;66420;50.246;14.320;2024-02-21T00:11:24;6.25;;;2.35;;
77350;SDS011;66420;50.246;14.320;2024-02-21T00:14:09;8.43;;;2.30;;
77350;SDS011;66420;50.246;14.320;2024-02-21T00:16:54;9.13;;;2.42;;
77350;SDS011;66420;50.246;14.320;2024-02-21T00:19:39;11.63;;;2.35;;
77350;SDS011;66420;50.246;14.320;2024-02-21T00:22:24;8.15;;;2.67;;
77350;SDS011;66420;50.246;14.320;2024-02-21T00:25:12;5.90;;;2.22;;
77350;SDS011;66420;50.246;14.320;2024-02-21T00:27:57;11.45;;;2.58;;
77350;SDS011;66420;50.246;14.320;2024-02-21T00:30:42;15.40;;;2.85;;
77350;SDS011;66420;50.246;14.320;2024-02-21T00:33:27;15.60;;;2.58;;
77350;SDS011;66420;50.246;14.320;2024-02-21T00:36:12;11.68;;;2.72;;
77350;SDS011;66420;50.246;14.320;2024-02-21T00:38:57;12.50;;;2.67;;
77350;SDS011;66420;50.246;14.320;2024-02-21T00:41:41;13.60;;;2.42;;
77350;SDS011;66420;50.246;14.320;2024-02-21T00:44:26;14.60;;;2.90;;
77350;SDS011;66420;50.246;14.320;2024-02-21T00:47:11;8.93;;;2.58;;
77350;SDS011;66420;50.246;14.320;2024-02-21T00:49:56;9.23;;;2.28;;
77350;SDS011;66420;50.246;14.320;2024-02-21T00:52:41;9.88;;;2.45;;
77350;SDS011;66420;50.246;14.320;2024-02-21T00:55:27;9.52;;;1.98;;
77350;SDS011;66420;50.246;14.320;2024-02-21T00:58:12;13.68;;;2.40;;
77350;SDS011;66420;50.246;14.320;2024-02-21T01:00:57;9.68;;;2.58;;
77350;SDS011;66420;50.246;14.320;2024-02-21T01:03:42;11.45;;;2.60;;
77350;SDS011;66420;50.246;14.320;2024-02-21T01:06:27;10.13;;;2.50;;
77350;SDS011;66420;50.246;14.320;2024-02-21T01:09:11;10.43;;;2.92;;
77350;SDS011;66420;50.246;14.320;2024-02-21T01:11:56;8.15;;;2.38;;
77350;SDS011;66420;50.246;14.320;2024-02-21T01:14:41;11.27;;;2.40;;
77350;SDS011;66420;50.246;14.320;2024-02-21T01:17:25;9.50;;;2.40;;
77350;SDS011;66420;50.246;14.320;2024-02-21T01:20:10;9.35;;;2.15;;
77350;SDS011;66420;50.246;14.320;2024-02-21T01:22:55;7.88;;;2.20;;
77350;SDS011;66420;50.246;14.320;2024-02-21T01:25:39;11.10;;;2.85;;
77350;SDS011;66420;50.246;14.320;2024-02-21T01:28:25;11.68;;;2.50;;
77350;SDS011;66420;50.246;14.320;2024-02-21T01:31:09;11.60;;;4.25;;
77350;SDS011;66420;50.246;14.320;2024-02-21T01:33:54;15.65;;;4.45;;
77350;SDS011;66420;50.246;14.320;2024-02-21T01:36:40;16.20;;;4.40;;
77350;SDS011;66420;50.246;14.320;2024-02-21T01:39:26;19.02;;;4.78;;
77350;SDS011;66420;50.246;14.320;2024-02-21T01:42:11;11.93;;;3.72;;
77350;SDS011;66420;50.246;14.320;2024-02-21T01:44:56;16.60;;;4.35;;
77350;SDS011;66420;50.246;14.320;2024-02-21T01:47:41;13.85;;;4.18;;
77350;SDS011;66420;50.246;14.320;2024-02-21T01:50:26;13.13;;;4.22;;
77350;SDS011;66420;50.246;14.320;2024-02-21T01:53:14;13.90;;;3.78;;
77350;SDS011;66420;50.246;14.320;2024-02-21T01:56:03;10.13;;;3.78;;
77350;SDS011;66420;50.246;14.320;2024-02-21T01:58:50;13.52;;;3.65;;
77350;SDS011;66420;50.246;14.320;2024-02-21T02:01:36;13.13;;;3.50;;
77350;SDS011;66420;50.246;14.320;2024-02-21T02:04:21;10.90;;;3.50;;
77350;SDS011;66420;50.246;14.320;2024-02-21T02:07:07;14.63;;;3.05;;
77350;SDS011;66420;50.246;14.320;2024-02-21T02:09:52;12.80;;;3.67;;
77350;SDS011;66420;50.246;14.320;2024-02-21T02:12:36;13.70;;;3.65;;
77350;SDS011;66420;50.246;14.320;2024-02-21T02:15:20;15.85;;;4.07;;
77350;SDS011;66420;50.246;14.320;2024-02-21T02:18:06;9.45;;;3.20;;
77350;SDS011;66420;50.246;14.320;2024-02-21T02:20:51;12.80;;;3.15;;
77350;SDS011;66420;50.246;14.320;2024-02-21T02:23:37;8.13;;;3.30;;
77350;SDS011;66420;50.246;14.320;2024-02-21T02:26:22;12.23;;;3.50;;
77350;SDS011;66420;50.246;14.320;2024-02-21T02:29:06;10.85;;;2.85;;
77350;SDS011;66420;50.246;14.320;2024-02-21T02:31:51;7.68;;;2.47;;
77350;SDS011;66420;50.246;14.320;2024-02-21T02:34:36;7.45;;;2.60;;
77350;SDS011;66420;50.246;14.320;2024-02-21T02:37:21;14.63;;;4.20;;
77350;SDS011;66420;50.246;14.320;2024-02-21T02:40:06;8.80;;;2.20;;
77350;SDS011;66420;50.246;14.320;2024-02-21T02:42:52;9.88;;;3.22;;
77350;SDS011;66420;50.246;14.320;2024-02-21T02:45:39;11.38;;;2.60;;
77350;SDS011;66420;50.246;14.320;2024-02-21T02:48:24;10.13;;;2.40;;
77350;SDS011;66420;50.246;14.320;2024-02-21T02:51:09;8.55;;;2.92;;
77350;SDS011;66420;50.246;14.320;2024-02-21T02:53:53;9.60;;;2.33;;
77350;SDS011;66420;50.246;14.320;2024-02-21T02:56:39;8.02;;;2.50;;
77350;SDS011;66420;50.246;14.320;2024-02-21T02:59:23;7.75;;;2.35;;
77350;SDS011;66420;50.246;14.320;2024-02-21T03:02:08;11.20;;;3.05;;
77350;SDS011;66420;50.246;14.320;2024-02-21T03:04:53;11.10;;;2.72;;
77350;SDS011;66420;50.246;14.320;2024-02-21T03:07:38;9.45;;;2.88;;
77350;SDS011;66420;50.246;14.320;2024-02-21T03:10:22;7.35;;;2.67;;
77350;SDS011;66420;50.246;14.320;2024-02-21T03:13:07;10.90;;;3.13;;
77350;SDS011;66420;50.246;14.320;2024-02-21T03:15:51;7.97;;;2.30;;
77350;SDS011;66420;50.246;14.320;2024-02-21T03:18:36;9.95;;;3.05;;
77350;SDS011;66420;50.246;14.320;2024-02-21T03:21:21;11.63;;;2.58;;
77350;SDS011;66420;50.246;14.320;2024-02-21T03:24:06;9.73;;;3.15;;
77350;SDS011;66420;50.246;14.320;2024-02-21T03:26:51;14.43;;;3.42;;
77350;SDS011;66420;50.246;14.320;2024-02-21T03:29:35;7.00;;;2.20;;
77350;SDS011;66420;50.246;14.320;2024-02-21T03:32:20;14.05;;;2.88;;
77350;SDS011;66420;50.246;14.320;2024-02-21T03:35:05;11.32;;;2.40;;
77350;SDS011;66420;50.246;14.320;2024-02-21T03:37:50;9.75;;;2.85;;
77350;SDS011;66420;50.246;14.320;2024-02-21T03:40:35;6.80;;;2.60;;
77350;SDS011;66420;50.246;14.320;2024-02-21T03:43:20;8.00;;;2.88;;
77350;SDS011;66420;50.246;14.320;2024-02-21T03:46:05;12.23;;;2.85;;
77350;SDS011;66420;50.246;14.320;2024-02-21T03:48:51;9.38;;;2.75;;
77350;SDS011;66420;50.246;14.320;2024-02-21T03:51:36;9.07;;;2.53;;
77350;SDS011;66420;50.246;14.320;2024-02-21T03:54:21;15.30;;;2.67;;
77350;SDS011;66420;50.246;14.320;2024-02-21T03:57:06;16.90;;;4.68;;
77350;SDS011;66420;50.246;14.320;2024-02-21T03:59:51;16.20;;;5.07;;
77350;SDS011;66420;50.246;14.320;2024-02-21T04:02:36;13.73;;;4.57;;
77350;SDS011;66420;50.246;14.320;2024-02-21T04:05:21;15.80;;;3.85;;
77350;SDS011;66420;50.246;14.320;2024-02-21T04:08:06;14.82;;;3.60;;
77350;SDS011;66420;50.246;14.320;2024-02-21T04:10:52;14.63;;;3.33;;
77350;SDS011;66420;50.246;14.320;2024-02-21T04:13:36;17.77;;;5.40;;
77350;SDS011;66420;50.246;14.320;2024-02-21T04:16:21;14.13;;;4.70;;
77350;SDS011;66420;50.246;14.320;2024-02-21T04:19:06;21.30;;;7.57;;
77350;SDS011;66420;50.246;14.320;2024-02-21T04:21:50;37.72;;;10.52;;
77350;SDS011;66420;50.246;14.320;2024-02-21T04:24:35;36.63;;;8.55;;
77350;SDS011;66420;50.246;14.320;2024-02-21T04:27:20;14.52;;;4.70;;
77350;SDS011;66420;50.246;14.320;2024-02-21T04:30:05;18.70;;;4.05;;
77350;SDS011;66420;50.246;14.320;2024-02-21T04:32:51;9.73;;;3.95;;
77350;SDS011;66420;50.246;14.320;2024-02-21T04:35:36;10.85;;;3.28;;
77350;SDS011;66420;50.246;14.320;2024-02-21T04:38:21;13.50;;;3.53;;
77350;SDS011;66420;50.246;14.320;2024-02-21T04:41:06;14.02;;;3.40;;
77350;SDS011;66420;50.246;14.320;2024-02-21T04:43:51;9.02;;;3.00;;
77350;SDS011;66420;50.246;14.320;2024-02-21T04:46:35;14.25;;;3.20;;
77350;SDS011;66420;50.246;14.320;2024-02-21T04:49:21;8.93;;;3.08;;
77350;SDS011;66420;50.246;14.320;2024-02-21T04:52:05;14.38;;;3.35;;
77350;SDS011;66420;50.246;14.320;2024-02-21T04:54:50;12.55;;;3.17;;
77350;SDS011;66420;50.246;14.320;2024-02-21T04:57:36;12.02;;;2.88;;
77350;SDS011;66420;50.246;14.320;2024-02-21T05:00:21;13.73;;;3.38;;
77350;SDS011;66420;50.246;14.320;2024-02-21T05:03:06;10.13;;;3.25;;
77350;SDS011;66420;50.246;14.320;2024-02-21T05:05:50;14.77;;;3.13;;
77350;SDS011;66420;50.246;14.320;2024-02-21T05:08:35;9.45;;;3.05;;
77350;SDS011;66420;50.246;14.320;2024-02-21T05:11:21;10.73;;;3.58;;
77350;SDS011;66420;50.246;14.320;2024-02-21T05:14:06;13.55;;;3.60;;
77350;SDS011;66420;50.246;14.320;2024-02-21T05:16:51;14.93;;;3.55;;
77350;SDS011;66420;50.246;14.320;2024-02-21T05:19:35;12.65;;;3.03;;
77350;SDS011;66420;50.246;14.320;2024-02-21T05:22:20;10.02;;;3.72;;
77350;SDS011;66420;50.246;14.320;2024-02-21T05:25:06;11.05;;;3.38;;
77350;SDS011;66420;50.246;14.320;2024-02-21T05:27:51;14.75;;;2.95;;
77350;SDS011;66420;50.246;14.320;2024-02-21T05:30:37;11.15;;;3.50;;
77350;SDS011;66420;50.246;14.320;2024-02-21T05:33:22;10.40;;;3.33;;
77350;SDS011;66420;50.246;14.320;2024-02-21T05:36:07;12.65;;;3.25;;
77350;SDS011;66420;50.246;14.320;2024-02-21T05:38:52;7.93;;;2.92;;
77350;SDS011;66420;50.246;14.320;2024-02-21T05:41:36;15.20;;;3.15;;
77350;SDS011;66420;50.246;14.320;2024-02-21T05:44:21;10.43;;;2.58;;
77350;SDS011;66420;50.246;14.320;2024-02-21T05:47:06;12.82;;;3.10;;
77350;SDS011;66420;50.246;14.320;2024-02-21T05:49:54;12.77;;;3.05;;
77350;SDS011;66420;50.246;14.320;2024-02-21T05:52:39;16.52;;;2.90;;
77350;SDS011;66420;50.246;14.320;2024-02-21T05:55:24;14.80;;;3.13;;
77350;SDS011;66420;50.246;14.320;2024-02-21T05:58:09;11.88;;;3.15;;
77350;SDS011;66420;50.246;14.320;2024-02-21T06:00:57;12.75;;;3.22;;
77350;SDS011;66420;50.246;14.320;2024-02-21T06:03:42;10.88;;;3.22;;
77350;SDS011;66420;50.246;14.320;2024-02-21T06:06:27;9.05;;;3.00;;
77350;SDS011;66420;50.246;14.320;2024-02-21T06:09:12;8.52;;;3.20;;
77350;SDS011;66420;50.246;14.320;2024-02-21T06:11:57;11.45;;;3.08;;
77350;SDS011;66420;50.246;14.320;2024-02-21T06:14:42;10.10;;;3.15;;
77350;SDS011;66420;50.246;14.320;2024-02-21T06:17:27;10.25;;;3.47;;
77350;SDS011;66420;50.246;14.320;2024-02-21T06:20:12;11.05;;;3.72;;
77350;SDS011;66420;50.246;14.320;2024-02-21T06:22:57;16.75;;;4.03;;
77350;SDS011;66420;50.246;14.320;2024-02-21T06:25:42;14.45;;;3.20;;
77350;SDS011;66420;50.246;14.320;2024-02-21T06:28:26;12.50;;;3.25;;
77350;SDS011;66420;50.246;14.320;2024-02-21T06:31:12;10.98;;;3.45;;
77350;SDS011;66420;50.246;14.320;2024-02-21T06:33:56;10.45;;;2.92;;
77350;SDS011;66420;50.246;14.320;2024-02-21T06:36:41;10.35;;;2.60;;
77350;SDS011;66420;50.246;14.320;2024-02-21T06:39:26;10.57;;;3.25;;
77350;SDS011;66420;50.246;14.320;2024-02-21T06:42:13;14.80;;;3.75;;
77350;SDS011;66420;50.246;14.320;2024-02-21T06:44:58;11.73;;;3.33;;
77350;SDS011;66420;50.246;14.320;2024-02-21T06:47:42;8.77;;;3.22;;
77350;SDS011;66420;50.246;14.320;2024-02-21T06:50:28;16.40;;;3.45;;
77350;SDS011;66420;50.246;14.320;2024-02-21T06:53:13;10.00;;;3.00;;
77350;SDS011;66420;50.246;14.320;2024-02-21T06:55:57;8.35;;;3.30;;
77350;SDS011;66420;50.246;14.320;2024-02-21T06:58:42;11.05;;;3.50;;
77350;SDS011;66420;50.246;14.320;2024-02-21T07:01:27;10.85;;;3.70;;
77350;SDS011;66420;50.246;14.320;2024-02-21T07:04:12;10.85;;;3.42;;
77350;SDS011;66420;50.246;14.320;2024-02-21T07:06:57;14.20;;;3.67;;
77350;SDS011;66420;50.246;14.320;2024-02-21T07:09:42;7.82;;;2.80;;
77350;SDS011;66420;50.246;14.320;2024-02-21T07:12:26;12.45;;;3.20;;
77350;SDS011;66420;50.246;14.320;2024-02-21T07:15:11;8.98;;;3.35;;
77350;SDS011;66420;50.246;14.320;2024-02-21T07:17:56;12.10;;;3.35;;
77350;SDS011;66420;50.246;14.320;2024-02-21T07:20:41;10.70;;;3.00;;
77350;SDS011;66420;50.246;14.320;2024-02-21T07:23:25;9.73;;;3.13;;
77350;SDS011;66420;50.246;14.320;2024-02-21T07:26:11;13.43;;;3.90;;
77350;SDS011;66420;50.246;14.320;2024-02-21T07:28:55;13.65;;;3.35;;
77350;SDS011;66420;50.246;14.320;2024-02-21T07:31:41;11.20;;;3.42;;
77350;SDS011;66420;50.246;14.320;2024-02-21T07:34:29;14.23;;;3.22;;
77350;SDS011;66420;50.246;14.320;2024-02-21T07:37:14;9.00;;;3.00;;
77350;SDS011;66420;50.246;14.320;2024-02-21T07:39:59;8.93;;;3.10;;
77350;SDS011;66420;50.246;14.320;2024-02-21T07:42:44;14.68;;;3.70;;
77350;SDS011;66420;50.246;14.320;2024-02-21T07:45:29;10.95;;;3.20;;
77350;SDS011;66420;50.246;14.320;2024-02-21T07:48:14;13.02;;;3.40;;
77350;SDS011;66420;50.246;14.320;2024-02-21T07:50:59;10.10;;;2.85;;
77350;SDS011;66420;50.246;14.320;2024-02-21T07:53:44;16.00;;;3.50;;
77350;SDS011;66420;50.246;14.320;2024-02-21T07:56:29;9.07;;;2.92;;
77350;SDS011;66420;50.246;14.320;2024-02-21T07:59:14;14.07;;;3.38;;
77350;SDS011;66420;50.246;14.320;2024-02-21T08:01:59;11.88;;;3.63;;
77350;SDS011;66420;50.246;14.320;2024-02-21T08:04:44;11.52;;;2.92;;
77350;SDS011;66420;50.246;14.320;2024-02-21T08:07:28;8.80;;;2.97;;
77350;SDS011;66420;50.246;14.320;2024-02-21T08:10:13;12.35;;;3.30;;
77350;SDS011;66420;50.246;14.320;2024-02-21T08:12:57;7.32;;;2.58;;
77350;SDS011;66420;50.246;14.320;2024-02-21T08:15:42;15.35;;;3.67;;
77350;SDS011;66420;50.246;14.320;2024-02-21T08:18:26;9.82;;;3.42;;
77350;SDS011;66420;50.246;14.320;2024-02-21T08:21:11;10.43;;;2.88;;
77350;SDS011;66420;50.246;14.320;2024-02-21T08:23:56;12.70;;;3.08;;
77350;SDS011;66420;50.246;14.320;2024-02-21T08:26:41;10.65;;;3.83;;
77350;SDS011;66420;50.246;14.320;2024-02-21T08:29:26;10.00;;;3.58;;
77350;SDS011;66420;50.246;14.320;2024-02-21T08:32:11;12.88;;;2.92;;
77350;SDS011;66420;50.246;14.320;2024-02-21T08:34:55;11.43;;;3.50;;
77350;SDS011;66420;50.246;14.320;2024-02-21T08:37:40;12.13;;;3.40;;
77350;SDS011;66420;50.246;14.320;2024-02-21T08:40:27;10.98;;;4.03;;
77350;SDS011;66420;50.246;14.320;2024-02-21T08:43:12;9.88;;;3.50;;
77350;SDS011;66420;50.246;14.320;2024-02-21T08:45:56;8.68;;;3.10;;
77350;SDS011;66420;50.246;14.320;2024-02-21T08:48:41;12.02;;;3.70;;
77350;SDS011;66420;50.246;14.320;2024-02-21T08:51:27;10.93;;;3.25;;
77350;SDS011;66420;50.246;14.320;2024-02-21T08:54:12;18.40;;;4.25;;
77350;SDS011;66420;50.246;14.320;2024-02-21T08:56:56;14.20;;;3.22;;
77350;SDS011;66420;50.246;14.320;2024-02-21T08:59:41;10.32;;;3.40;;
77350;SDS011;66420;50.246;14.320;2024-02-21T09:02:25;10.35;;;3.35;;
77350;SDS011;66420;50.246;14.320;2024-02-21T09:05:10;12.10;;;3.92;;
77350;SDS011;66420;50.246;14.320;2024-02-21T09:07:55;12.85;;;3.63;;
77350;SDS011;66420;50.246;14.320;2024-02-21T09:10:40;9.88;;;3.47;;
77350;SDS011;66420;50.246;14.320;2024-02-21T09:13:25;12.70;;;3.75;;
77350;SDS011;66420;50.246;14.320;2024-02-21T09:16:11;16.05;;;4.00;;
77350;SDS011;66420;50.246;14.320;2024-02-21T09:18:56;9.02;;;3.42;;
77350;SDS011;66420;50.246;14.320;2024-02-21T09:21:41;9.68;;;3.38;;
77350;SDS011;66420;50.246;14.320;2024-02-21T09:24:26;11.52;;;3.63;;
77350;SDS011;66420;50.246;14.320;2024-02-21T09:27:11;11.10;;;3.50;;
77350;SDS011;66420;50.246;14.320;2024-02-21T09:29:56;12.00;;;3.60;;
77350;SDS011;66420;50.246;14.320;2024-02-21T09:32:41;11.43;;;3.50;;
77350;SDS011;66420;50.246;14.320;2024-02-21T09:35:26;11.52;;;3.60;;
77350;SDS011;66420;50.246;14.320;2024-02-21T09:38:12;14.43;;;4.55;;
77350;SDS011;66420;50.246;14.320;2024-02-21T09:41:01;14.60;;;4.18;;
77350;SDS011;66420;50.246;14.320;2024-02-21T09:43:55;8.93;;;3.58;;
77350;SDS011;66420;50.246;14.320;2024-02-21T09:46:43;12.63;;;3.47;;
77350;SDS011;66420;50.246;14.320;2024-02-21T09:49:36;9.05;;;3.08;;
77350;SDS011;66420;50.246;14.320;2024-02-21T09:52:22;9.60;;;2.90;;
77350;SDS011;66420;50.246;14.320;2024-02-21T09:55:08;12.10;;;3.30;;
77350;SDS011;66420;50.246;14.320;2024-02-21T09:57:56;11.73;;;2.95;;
77350;SDS011;66420;50.246;14.320;2024-02-21T10:00:42;7.53;;;2.85;;
77350;SDS011;66420;50.246;14.320;2024-02-21T10:03:27;10.90;;;3.25;;
77350;SDS011;66420;50.246;14.320;2024-02-21T10:06:11;10.82;;;3.03;;
77350;SDS011;66420;50.246;14.320;2024-02-21T10:08:55;12.40;;;3.75;;
77350;SDS011;66420;50.246;14.320;2024-02-21T10:11:40;12.73;;;2.85;;
77350;SDS011;66420;50.246;14.320;2024-02-21T10:14:25;8.25;;;3.08;;
77350;SDS011;66420;50.246;14.320;2024-02-21T10:17:19;10.77;;;2.95;;
77350;SDS011;66420;50.246;14.320;2024-02-21T10:20:10;11.32;;;3.03;;
77350;SDS011;66420;50.246;14.320;2024-02-21T10:23:00;10.45;;;2.90;;
77350;SDS011;66420;50.246;14.320;2024-02-21T10:28:40;9.05;;;2.75;;
77350;SDS011;66420;50.246;14.320;2024-02-21T10:31:31;8.25;;;2.60;;
77350;SDS011;66420;50.246;14.320;2024-02-21T10:34:17;11.65;;;2.95;;
77350;SDS011;66420;50.246;14.320;2024-02-21T10:37:03;8.93;;;2.60;;
77350;SDS011;66420;50.246;14.320;2024-02-21T10:39:51;11.35;;;2.53;;
77350;SDS011;66420;50.246;14.320;2024-02-21T10:42:38;7.10;;;2.50;;
77350;SDS011;66420;50.246;14.320;2024-02-21T10:45:24;8.13;;;2.78;;
77350;SDS011;66420;50.246;14.320;2024-02-21T10:48:15;6.43;;;2.20;;
77350;SDS011;66420;50.246;14.320;2024-02-21T10:51:16;6.30;;;2.45;;
77350;SDS011;66420;50.246;14.320;2024-02-21T10:57:09;6.25;;;2.58;;
77350;SDS011;66420;50.246;14.320;2024-02-21T10:59:58;14.02;;;2.97;;
77350;SDS011;66420;50.246;14.320;2024-02-21T11:02:43;8.75;;;2.45;;
77350;SDS011;66420;50.246;14.320;2024-02-21T11:05:29;8.57;;;2.72;;
77350;SDS011;66420;50.246;14.320;2024-02-21T11:08:15;9.30;;;2.65;;
77350;SDS011;66420;50.246;14.320;2024-02-21T11:11:01;10.15;;;3.13;;
77350;SDS011;66420;50.246;14.320;2024-02-21T11:13:45;9.68;;;2.50;;
77350;SDS011;66420;50.246;14.320;2024-02-21T11:16:34;6.03;;;2.60;;
77350;SDS011;66420;50.246;14.320;2024-02-21T11:19:25;6.43;;;2.53;;
77350;SDS011;66420;50.246;14.320;2024-02-21T11:22:18;6.60;;;2.83;;
77350;SDS011;66420;50.246;14.320;2024-02-21T11:25:07;7.22;;;2.42;;
77350;SDS011;66420;50.246;14.320;2024-02-21T11:28:02;10.48;;;2.30;;
77350;SDS011;66420;50.246;14.320;2024-02-21T11:30:48;8.27;;;2.83;;
77350;SDS011;66420;50.246;14.320;2024-02-21T11:33:35;6.03;;;2.33;;
77350;SDS011;66420;50.246;14.320;2024-02-21T11:36:28;11.52;;;3.17;;
77350;SDS011;66420;50.246;14.320;2024-02-21T11:39:12;7.95;;;2.67;;
77350;SDS011;66420;50.246;14.320;2024-02-21T11:42:06;6.78;;;2.65;;
77350;SDS011;66420;50.246;14.320;2024-02-21T11:44:58;4.85;;;2.60;;
77350;SDS011;66420;50.246;14.320;2024-02-21T11:47:44;5.85;;;1.98;;
77350;SDS011;66420;50.246;14.320;2024-02-21T11:50:29;5.30;;;1.90;;
77350;SDS011;66420;50.246;14.320;2024-02-21T11:53:15;5.78;;;2.22;;
77350;SDS011;66420;50.246;14.320;2024-02-21T11:55:59;6.60;;;2.80;;
77350;SDS011;66420;50.246;14.320;2024-02-21T11:58:45;4.85;;;2.15;;
77350;SDS011;66420;50.246;14.320;2024-02-21T12:01:31;9.65;;;2.60;;
77350;SDS011;66420;50.246;14.320;2024-02-21T12:04:16;4.90;;;2.00;;
77350;SDS011;66420;50.246;14.320;2024-02-21T12:07:01;6.47;;;2.50;;
77350;SDS011;66420;50.246;14.320;2024-02-21T12:09:48;9.57;;;2.10;;
77350;SDS011;66420;50.246;14.320;2024-02-21T12:12:33;8.70;;;2.10;;
77350;SDS011;66420;50.246;14.320;2024-02-21T12:15:20;5.60;;;1.90;;
77350;SDS011;66420;50.246;14.320;2024-02-21T12:18:05;6.85;;;2.50;;
77350;SDS011;66420;50.246;14.320;2024-02-21T12:20:51;8.50;;;2.10;;
77350;SDS011;66420;50.246;14.320;2024-02-21T12:23:37;7.05;;;2.22;;
77350;SDS011;66420;50.246;14.320;2024-02-21T12:26:23;7.50;;;2.58;;
77350;SDS011;66420;50.246;14.320;2024-02-21T12:29:07;4.75;;;1.95;;
77350;SDS011;66420;50.246;14.320;2024-02-21T12:31:55;5.45;;;1.80;;
77350;SDS011;66420;50.246;14.320;2024-02-21T12:34:40;5.97;;;2.10;;
77350;SDS011;66420;50.246;14.320;2024-02-21T12:37:25;6.28;;;2.10;;
77350;SDS011;66420;50.246;14.320;2024-02-21T12:40:10;6.22;;;2.00;;
77350;SDS011;66420;50.246;14.320;2024-02-21T12:42:55;9.90;;;2.17;;
77350;SDS011;66420;50.246;14.320;2024-02-21T12:45:39;6.97;;;2.00;;
77350;SDS011;66420;50.246;14.320;2024-02-21T12:48:24;4.85;;;1.80;;
77350;SDS011;66420;50.246;14.320;2024-02-21T12:51:09;6.03;;;1.90;;
77350;SDS011;66420;50.246;14.320;2024-02-21T12:53:54;3.90;;;1.75;;
77350;SDS011;66420;50.246;14.320;2024-02-21T12:56:39;6.30;;;2.13;;
77350;SDS011;66420;50.246;14.320;2024-02-21T12:59:24;6.10;;;1.50;;
77350;SDS011;66420;50.246;14.320;2024-02-21T13:02:10;5.47;;;1.42;;
77350;SDS011;66420;50.246;14.320;2024-02-21T13:04:55;3.55;;;1.90;;
77350;SDS011;66420;50.246;14.320;2024-02-21T13:07:39;5.47;;;1.50;;
77350;SDS011;66420;50.246;14.320;2024-02-21T13:10:25;5.13;;;1.45;;
77350;SDS011;66420;50.246;14.320;2024-02-21T13:13:09;4.88;;;1.50;;
77350;SDS011;66420;50.246;14.320;2024-02-21T13:15:56;5.38;;;1.80;;
77350;SDS011;66420;50.246;14.320;2024-02-21T13:18:42;7.55;;;1.92;;
77350;SDS011;66420;50.246;14.320;2024-02-21T13:21:27;7.65;;;1.70;;
77350;SDS011;66420;50.246;14.320;2024-02-21T13:24:12;4.78;;;1.40;;
77350;SDS011;66420;50.246;14.320;2024-02-21T13:26:57;3.25;;;1.58;;
77350;SDS011;66420;50.246;14.320;2024-02-21T13:29:42;5.22;;;2.20;;
77350;SDS011;66420;50.246;14.320;2024-02-21T13:32:27;5.65;;;1.45;;
77350;SDS011;66420;50.246;14.320;2024-02-21T13:35:12;4.82;;;1.52;;
77350;SDS011;66420;50.246;14.320;2024-02-21T13:37:58;6.35;;;1.73;;
77350;SDS011;66420;50.246;14.320;2024-02-21T13:40:43;5.60;;;1.77;;
77350;SDS011;66420;50.246;14.320;2024-02-21T13:43:29;4.80;;;1.60;;
77350;SDS011;66420;50.246;14.320;2024-02-21T13:46:15;7.10;;;1.70;;
77350;SDS011;66420;50.246;14.320;2024-02-21T13:49:04;9.07;;;1.77;;
77350;SDS011;66420;50.246;14.320;2024-02-21T13:51:50;7.80;;;1.83;;
77350;SDS011;66420;50.246;14.320;2024-02-21T13:54:35;4.60;;;1.90;;
77350;SDS011;66420;50.246;14.320;2024-02-21T13:57:20;4.88;;;1.55;;
77350;SDS011;66420;50.246;14.320;2024-02-21T14:00:05;6.18;;;1.83;;
77350;SDS011;66420;50.246;14.320;2024-02-21T14:05:38;6.85;;;1.73;;
77350;SDS011;66420;50.246;14.320;2024-02-21T14:08:23;6.22;;;2.03;;
77350;SDS011;66420;50.246;14.320;2024-02-21T14:11:09;5.82;;;1.73;;
77350;SDS011;66420;50.246;14.320;2024-02-21T14:13:54;5.13;;;1.67;;
77350;SDS011;66420;50.246;14.320;2024-02-21T14:16:42;4.35;;;1.65;;
77350;SDS011;66420;50.246;14.320;2024-02-21T14:19:27;5.72;;;1.70;;
77350;SDS011;66420;50.246;14.320;2024-02-21T14:22:12;5.88;;;1.80;;
77350;SDS011;66420;50.246;14.320;2024-02-21T14:24:57;5.43;;;1.80;;
77350;SDS011;66420;50.246;14.320;2024-02-21T14:27:41;4.20;;;1.50;;
77350;SDS011;66420;50.246;14.320;2024-02-21T14:30:28;5.53;;;1.50;;
77350;SDS011;66420;50.246;14.320;2024-02-21T14:33:13;6.82;;;1.83;;
77350;SDS011;66420;50.246;14.320;2024-02-21T14:35:58;5.85;;;1.60;;
77350;SDS011;66420;50.246;14.320;2024-02-21T14:38:43;6.38;;;1.80;;
77350;SDS011;66420;50.246;14.320;2024-02-21T14:41:29;4.78;;;1.58;;
77350;SDS011;66420;50.246;14.320;2024-02-21T14:44:14;8.15;;;2.25;;
77350;SDS011;66420;50.246;14.320;2024-02-21T14:46:59;3.72;;;1.88;;
77350;SDS011;66420;50.246;14.320;2024-02-21T14:49:43;6.07;;;2.10;;
77350;SDS011;66420;50.246;14.320;2024-02-21T14:52:28;5.75;;;1.83;;
77350;SDS011;66420;50.246;14.320;2024-02-21T14:55:13;6.07;;;1.52;;
77350;SDS011;66420;50.246;14.320;2024-02-21T14:57:58;6.32;;;1.60;;
77350;SDS011;66420;50.246;14.320;2024-02-21T15:00:43;5.63;;;1.80;;
77350;SDS011;66420;50.246;14.320;2024-02-21T15:03:29;7.30;;;2.55;;
77350;SDS011;66420;50.246;14.320;2024-02-21T15:06:14;5.00;;;1.55;;
77350;SDS011;66420;50.246;14.320;2024-02-21T15:08:58;7.60;;;1.70;;
77350;SDS011;66420;50.246;14.320;2024-02-21T15:11:43;9.65;;;2.13;;
77350;SDS011;66420;50.246;14.320;2024-02-21T15:14:28;5.35;;;1.30;;
77350;SDS011;66420;50.246;14.320;2024-02-21T15:17:13;4.50;;;1.33;;
77350;SDS011;66420;50.246;14.320;2024-02-21T15:19:58;7.68;;;2.03;;
77350;SDS011;66420;50.246;14.320;2024-02-21T15:22:44;3.88;;;1.60;;
77350;SDS011;66420;50.246;14.320;2024-02-21T15:25:28;5.07;;;1.48;;
77350;SDS011;66420;50.246;14.320;2024-02-21T15:28:14;6.10;;;1.63;;
77350;SDS011;66420;50.246;14.320;2024-02-21T15:30:59;6.57;;;2.30;;
77350;SDS011;66420;50.246;14.320;2024-02-21T15:33:44;6.20;;;1.77;;
77350;SDS011;66420;50.246;14.320;2024-02-21T15:36:28;5.07;;;1.83;;
77350;SDS011;66420;50.246;14.320;2024-02-21T15:39:13;7.30;;;2.22;;
77350;SDS011;66420;50.246;14.320;2024-02-21T15:41:58;7.90;;;2.30;;
77350;SDS011;66420;50.246;14.320;2024-02-21T15:44:43;10.30;;;2.25;;
77350;SDS011;66420;50.246;14.320;2024-02-21T15:47:27;8.77;;;1.73;;
77350;SDS011;66420;50.246;14.320;2024-02-21T15:50:12;2.97;;;1.52;;
77350;SDS011;66420;50.246;14.320;2024-02-21T15:52:57;7.40;;;2.58;;
77350;SDS011;66420;50.246;14.320;2024-02-21T15:55:42;9.68;;;2.05;;
77350;SDS011;66420;50.246;14.320;2024-02-21T15:58:26;8.25;;;2.10;;
77350;SDS011;66420;50.246;14.320;2024-02-21T16:01:12;9.05;;;1.98;;
77350;SDS011;66420;50.246;14.320;2024-02-21T16:03:56;7.55;;;1.95;;
77350;SDS011;66420;50.246;14.320;2024-02-21T16:06:42;13.50;;;4.43;;
77350;SDS011;66420;50.246;14.320;2024-02-21T16:09:30;7.15;;;1.92;;
77350;SDS011;66420;50.246;14.320;2024-02-21T16:12:16;5.40;;;2.08;;
77350;SDS011;66420;50.246;14.320;2024-02-21T16:15:00;8.25;;;2.10;;
77350;SDS011;66420;50.246;14.320;2024-02-21T16:17:45;6.38;;;2.00;;
77350;SDS011;66420;50.246;14.320;2024-02-21T16:20:31;5.80;;;1.80;;
77350;SDS011;66420;50.246;14.320;2024-02-21T16:23:16;7.30;;;2.20;;